Time;durP1;ratioP1;P1;durP2;ratioP2;P2;SDS_P1;SDS_P2;PMS_P1;PMS_P2;Temp;Humidity;BMP_temperature;BMP_pressure;BME280_temperature;BME280_humidity;BME280_pressure;Samples;Min_cycle;Max_cycle;Signal;HPM_P1;HPM_P2
2023/03/02 00:02:17;;;;;;;3.10;2.27;;;16.20;55.50;;;;;;5082264;28;20232;-46
2023/03/02 00:04:58;;;;;;;4.97;2.40;;;16.20;55.60;;;;;;5069876;28;20199;-46
2023/03/02 00:07:31;;;;;;;2.97;2.40;;;16.20;55.60;;;;;;5083441;28;20232;-46
2023/03/02 00:10:02;;;;;;;2.37;1.77;;;16.10;55.60;;;;;;5072328;28;20207;-46
2023/03/02 00:12:35;;;;;;;3.07;2.20;;;16.20;55.70;;;;;;5065337;28;20282;-46
2023/03/02 00:15:05;;;;;;;2.27;1.87;;;16.10;55.60;;;;;;5089153;28;20201;-46
2023/03/02 00:17:32;;;;;;;2.53;2.00;;;16.10;55.60;;;;;;5088373;28;20196;-46
2023/03/02 00:20:10;;;;;;;4.00;2.00;;;16.10;55.70;;;;;;5096875;28;20203;-46
2023/03/02 00:22:44;;;;;;;2.20;1.77;;;16.10;55.70;;;;;;5092858;28;20586;-47
2023/03/02 00:25:18;;;;;;;2.20;2.00;;;16.10;55.70;;;;;;5088019;28;20642;-46
2023/03/02 00:27:53;;;;;;;2.70;2.33;;;16.10;55.80;;;;;;5075360;28;20208;-46
2023/03/02 00:30:22;;;;;;;3.53;2.53;;;16.10;55.80;;;;;;5073407;28;20197;-47
2023/03/02 00:32:51;;;;;;;2.40;2.10;;;16.10;55.80;;;;;;5089094;28;20189;-46
2023/03/02 00:35:22;;;;;;;2.23;1.90;;;16.10;55.80;;;;;;5089456;28;20202;-46
2023/03/02 00:37:53;;;;;;;2.23;1.53;;;16.00;55.80;;;;;;5070605;28;20208;-46
2023/03/02 00:40:25;;;;;;;3.63;2.20;;;16.00;55.80;;;;;;5090003;28;20213;-46
2023/03/02 00:42:59;;;;;;;2.53;1.97;;;16.00;56.40;;;;;;5094705;28;20566;-46
2023/03/02 00:45:30;;;;;;;2.53;2.33;;;16.00;55.80;;;;;;5080234;28;20205;-46
2023/03/02 00:48:01;;;;;;;3.07;2.20;;;16.00;55.80;;;;;;5061577;28;20207;-46
2023/03/02 00:50:30;;;;;;;2.63;2.00;;;16.00;55.90;;;;;;5072926;28;20317;-46
2023/03/02 00:52:59;;;;;;;1.73;1.50;;;16.00;55.90;;;;;;5075482;28;20643;-47
2023/03/02 00:55:30;;;;;;;3.23;2.40;;;16.00;55.90;;;;;;5074204;28;20190;-46
2023/03/02 00:58:02;;;;;;;2.47;1.83;;;16.00;56.00;;;;;;5089626;28;20234;-46
2023/03/02 01:00:34;;;;;;;2.90;2.13;;;16.00;56.00;;;;;;5071674;28;20759;-46
2023/03/02 01:03:05;;;;;;;2.57;1.97;;;16.00;56.00;;;;;;5079312;28;20599;-47
2023/03/02 01:05:43;;;;;;;2.80;2.17;;;16.00;56.00;;;;;;5069691;28;20229;-47
2023/03/02 01:08:12;;;;;;;2.13;1.93;;;15.90;56.00;;;;;;5087687;28;20182;-47
2023/03/02 01:10:42;;;;;;;2.00;1.80;;;15.90;56.00;;;;;;5065770;28;20200;-46
2023/03/02 01:13:12;;;;;;;2.23;2.03;;;15.90;56.10;;;;;;5089569;28;20254;-46
2023/03/02 01:15:44;;;;;;;1.60;1.50;;;15.90;56.10;;;;;;5087486;28;20197;-46
2023/03/02 01:18:18;;;;;;;2.03;1.67;;;15.90;56.10;;;;;;5086953;28;20523;-47
2023/03/02 01:20:58;;;;;;;2.53;2.00;;;15.90;56.20;;;;;;5085223;28;20271;-46
2023/03/02 01:23:30;;;;;;;2.33;1.67;;;15.90;56.20;;;;;;5069000;28;20233;-46
2023/03/02 01:26:01;;;;;;;2.60;2.20;;;15.90;56.20;;;;;;5060968;28;20803;-46
2023/03/02 01:28:29;;;;;;;2.13;1.90;;;15.80;56.20;;;;;;5052997;28;20669;-47
2023/03/02 01:31:01;;;;;;;1.97;1.77;;;15.80;56.20;;;;;;5068807;28;20201;-46
2023/03/02 01:33:34;;;;;;;1.93;1.80;;;15.80;56.30;;;;;;5079256;28;20739;-46
2023/03/02 01:36:07;;;;;;;1.90;1.67;;;15.80;56.30;;;;;;5083942;28;20561;-47
2023/03/02 01:38:39;;;;;;;4.43;2.10;;;15.80;56.30;;;;;;5083646;28;20228;-46
2023/03/02 01:41:08;;;;;;;2.20;1.83;;;15.80;56.20;;;;;;5086647;28;20196;-46
2023/03/02 01:43:40;;;;;;;2.20;2.00;;;15.80;56.30;;;;;;5084031;28;20866;-47
2023/03/02 01:46:18;;;;;;;1.90;1.67;;;15.80;56.30;;;;;;5088280;28;20220;-47
2023/03/02 01:49:00;;;;;;;3.40;1.50;;;15.80;56.30;;;;;;5085193;28;20205;-46
2023/03/02 01:51:49;;;;;;;1.50;1.40;;;15.80;56.30;;;;;;5067847;28;20213;-46
2023/03/02 01:54:22;;;;;;;3.40;1.80;;;15.80;56.40;;;;;;5085361;28;20617;-46
2023/03/02 01:56:59;;;;;;;4.73;1.93;;;15.80;56.40;;;;;;5071844;28;20191;-46
2023/03/02 01:59:29;;;;;;;2.10;1.67;;;15.80;56.40;;;;;;5084536;28;20228;-46
2023/03/02 02:02:00;;;;;;;2.33;1.50;;;15.70;56.30;;;;;;5087191;28;20227;-47
2023/03/02 02:04:33;;;;;;;1.97;1.77;;;15.70;56.30;;;;;;5064059;28;20735;-46
2023/03/02 02:07:07;;;;;;;2.57;2.07;;;15.80;56.40;;;;;;5069537;28;20232;-46
2023/03/02 02:09:49;;;;;;;1.90;1.70;;;15.70;56.30;;;;;;5050612;28;20232;-46
2023/03/02 02:12:22;;;;;;;2.57;1.90;;;15.70;56.30;;;;;;5078712;28;20219;-46
2023/03/02 02:14:59;;;;;;;2.27;1.87;;;15.70;56.30;;;;;;5070336;28;20187;-46
2023/03/02 02:17:32;;;;;;;1.60;1.50;;;15.70;56.30;;;;;;5077031;28;20196;-47
2023/03/02 02:20:29;;;;;;;1.97;1.67;;;15.70;56.30;;;;;;5077036;28;20208;-46
2023/03/02 02:23:25;;;;;;;2.50;1.60;;;15.70;56.90;;;;;;5055203;28;20380;-46
2023/03/02 02:26:17;;;;;;;1.97;1.83;;;15.70;56.30;;;;;;5068136;28;20196;-47
2023/03/02 02:29:17;;;;;;;1.77;1.60;;;15.70;56.40;;;;;;5091943;28;20193;-46
2023/03/02 02:32:27;;;;;;;1.63;1.53;;;15.70;56.50;;;;;;5091346;28;20192;-46
2023/03/02 02:35:15;;;;;;;1.80;1.60;;;15.70;56.50;;;;;;5069446;28;20218;-46
2023/03/02 02:38:11;;;;;;;2.33;1.60;;;15.60;56.50;;;;;;5076227;28;20197;-46
2023/03/02 02:40:57;;;;;;;2.17;1.77;;;15.60;56.50;;;;;;5060379;28;20225;-46
2023/03/02 02:43:33;;;;;;;2.03;1.83;;;15.60;56.50;;;;;;5074112;28;20228;-46
2023/03/02 02:46:05;;;;;;;2.33;2.13;;;15.60;56.40;;;;;;5091497;28;20613;-46
2023/03/02 02:48:40;;;;;;;2.67;2.03;;;15.60;56.50;;;;;;5064451;28;20376;-46
2023/03/02 02:51:20;;;;;;;1.97;1.80;;;15.70;56.50;;;;;;5091299;28;20228;-46
2023/03/02 02:53:57;;;;;;;3.03;1.67;;;15.60;56.50;;;;;;5084136;28;20195;-46
2023/03/02 02:56:35;;;;;;;4.63;2.10;;;15.60;56.40;;;;;;5085806;28;20204;-46
2023/03/02 02:59:32;;;;;;;2.07;1.70;;;15.60;56.50;;;;;;5057733;28;20224;-46
2023/03/02 03:02:01;;;;;;;1.87;1.50;;;15.60;56.50;;;;;;5065824;28;20212;-46
2023/03/02 03:04:31;;;;;;;4.57;1.70;;;15.60;56.50;;;;;;5071517;28;20194;-46
2023/03/02 03:07:05;;;;;;;2.83;1.90;;;15.60;56.60;;;;;;5093186;28;20212;-46
2023/03/02 03:09:34;;;;;;;2.33;1.90;;;15.60;56.60;;;;;;5096478;28;20197;-46
2023/03/02 03:12:25;;;;;;;2.47;1.83;;;15.60;56.60;;;;;;5069663;28;20205;-46
2023/03/02 03:15:01;;;;;;;2.20;1.83;;;15.60;56.50;;;;;;5061997;28;20642;-46
2023/03/02 03:17:32;;;;;;;1.70;1.60;;;15.50;56.50;;;;;;5089501;28;20203;-46
2023/03/02 03:20:05;;;;;;;2.07;1.87;;;15.50;56.50;;;;;;5064212;28;20196;-46
2023/03/02 03:22:37;;;;;;;2.67;2.10;;;15.50;56.50;;;;;;5071819;28;20192;-46
2023/03/02 03:25:06;;;;;;;5.00;1.50;;;15.60;56.60;;;;;;5082565;28;20257;-46
2023/03/02 03:27:37;;;;;;;2.03;1.80;;;15.60;56.50;;;;;;5100794;28;20656;-46
2023/03/02 03:30:10;;;;;;;1.90;1.70;;;15.50;56.50;;;;;;5083813;28;20182;-46
2023/03/02 03:32:39;;;;;;;2.07;1.77;;;15.50;56.50;;;;;;5081035;28;20197;-46
2023/03/02 03:35:11;;;;;;;2.30;1.70;;;15.50;56.50;;;;;;5062457;28;20220;-46
2023/03/02 03:37:44;;;;;;;3.53;1.90;;;15.50;56.60;;;;;;5081692;28;20701;-46
2023/03/02 03:40:15;;;;;;;2.10;1.53;;;15.50;56.60;;;;;;5085595;28;20229;-46
2023/03/02 03:42:50;;;;;;;2.77;2.07;;;15.50;56.60;;;;;;5064339;28;20213;-46
2023/03/02 03:45:21;;;;;;;2.27;1.60;;;15.50;56.60;;;;;;5086355;28;20228;-46
2023/03/02 03:47:52;;;;;;;1.50;1.40;;;15.50;56.60;;;;;;5069649;28;20241;-46
2023/03/02 03:50:24;;;;;;;1.97;1.73;;;15.50;56.60;;;;;;5066520;28;20209;-46
2023/03/02 03:52:54;;;;;;;3.77;1.93;;;15.50;56.60;;;;;;5073575;28;20202;-47
2023/03/02 03:55:27;;;;;;;2.20;1.63;;;15.50;56.60;;;;;;5053048;28;20212;-46
2023/03/02 03:57:58;;;;;;;1.90;1.80;;;15.50;56.80;;;;;;5072904;28;20197;-46
2023/03/02 04:00:29;;;;;;;2.50;1.80;;;15.40;56.50;;;;;;5080118;28;20654;-46
2023/03/02 04:03:01;;;;;;;2.30;1.60;;;15.40;56.50;;;;;;5089158;28;20212;-46
2023/03/02 04:05:33;;;;;;;1.90;1.70;;;15.40;56.60;;;;;;5080128;28;20209;-46
2023/03/02 04:08:06;;;;;;;1.63;1.53;;;15.50;56.60;;;;;;5075407;28;20566;-46
2023/03/02 04:10:38;;;;;;;2.03;1.83;;;15.40;56.60;;;;;;5074307;28;20189;-46
2023/03/02 04:13:10;;;;;;;2.43;1.70;;;15.40;56.60;;;;;;5056351;28;20190;-46
2023/03/02 04:15:41;;;;;;;1.30;1.20;;;15.40;56.60;;;;;;5090951;28;20189;-46
2023/03/02 04:18:15;;;;;;;2.40;2.17;;;15.40;56.60;;;;;;5072349;28;20193;-47
2023/03/02 04:20:52;;;;;;;1.90;1.70;;;15.40;56.60;;;;;;5083371;28;20196;-46
2023/03/02 04:23:24;;;;;;;3.37;2.60;;;15.40;56.60;;;;;;5081149;28;20647;-47
2023/03/02 04:25:56;;;;;;;2.30;2.10;;;15.40;56.60;;;;;;5084409;28;20189;-46
2023/03/02 04:28:27;;;;;;;1.60;1.50;;;15.40;56.60;;;;;;5075216;28;20217;-46
2023/03/02 04:30:55;;;;;;;1.77;1.67;;;15.40;56.60;;;;;;5091758;28;20250;-46
2023/03/02 04:33:26;;;;;;;1.73;1.63;;;15.30;56.60;;;;;;5079840;28;20607;-46
2023/03/02 04:35:57;;;;;;;2.63;2.33;;;15.30;56.60;;;;;;5088184;28;20226;-46
2023/03/02 04:38:36;;;;;;;2.90;1.93;;;15.30;57.20;;;;;;5041073;28;20189;-46
2023/03/02 04:41:11;;;;;;;3.30;2.10;;;15.30;56.70;;;;;;5063831;28;20199;-46
2023/03/02 04:43:41;;;;;;;2.30;2.10;;;15.40;56.70;;;;;;5087562;28;20531;-46
2023/03/02 04:46:24;;;;;;;2.77;2.30;;;15.30;56.70;;;;;;5070816;28;20208;-46
2023/03/02 04:48:53;;;;;;;2.50;1.80;;;15.30;56.60;;;;;;5070586;28;20262;-46
2023/03/02 04:51:31;;;;;;;2.47;2.10;;;15.30;56.70;;;;;;5088100;28;20212;-46
2023/03/02 04:54:21;;;;;;;2.93;2.40;;;15.30;56.70;;;;;;5072296;28;20638;-46
2023/03/02 04:56:52;;;;;;;2.50;2.07;;;15.30;56.70;;;;;;5069556;28;20193;-47
2023/03/02 04:59:27;;;;;;;2.50;2.30;;;15.30;56.80;;;;;;5068024;28;20220;-46
2023/03/02 05:02:00;;;;;;;2.63;2.23;;;15.30;56.80;;;;;;5071838;28;20259;-46
2023/03/02 05:04:33;;;;;;;3.70;2.67;;;15.30;56.80;;;;;;5067968;28;20232;-46
2023/03/02 05:07:05;;;;;;;2.33;2.13;;;15.30;56.70;;;;;;5074115;28;20221;-46
2023/03/02 05:09:36;;;;;;;3.83;2.20;;;15.30;56.70;;;;;;5084634;28;20201;-46
2023/03/02 05:12:06;;;;;;;2.77;1.90;;;15.30;56.80;;;;;;5072465;28;20212;-46
2023/03/02 05:14:38;;;;;;;4.03;2.00;;;15.30;56.80;;;;;;5081951;28;20257;-46
2023/03/02 05:17:09;;;;;;;3.23;2.23;;;15.30;56.80;;;;;;5091763;28;20212;-46
2023/03/02 05:19:42;;;;;;;2.70;2.40;;;15.30;56.80;;;;;;5063785;28;20262;-46
2023/03/02 05:22:11;;;;;;;4.07;2.50;;;15.30;56.70;;;;;;5080954;28;20601;-46
2023/03/02 05:24:43;;;;;;;3.70;2.10;;;15.30;57.30;;;;;;5082324;28;20788;-46
2023/03/02 05:27:11;;;;;;;2.40;2.20;;;15.20;56.70;;;;;;5088247;28;20209;-46
2023/03/02 05:29:43;;;;;;;2.50;2.10;;;15.30;56.70;;;;;;5086318;28;20190;-46
2023/03/02 05:32:16;;;;;;;3.40;2.30;;;15.20;56.70;;;;;;5087379;28;20201;-46
2023/03/02 05:34:45;;;;;;;2.80;2.40;;;15.20;56.70;;;;;;5082738;28;20738;-46
2023/03/02 05:37:15;;;;;;;3.27;2.30;;;15.20;56.60;;;;;;5087087;28;20189;-47
2023/03/02 05:39:48;;;;;;;2.73;2.50;;;15.20;56.60;;;;;;5089103;28;20232;-46
2023/03/02 05:42:28;;;;;;;2.67;2.43;;;15.20;56.60;;;;;;5091873;28;20188;-46
2023/03/02 05:45:01;;;;;;;2.80;2.33;;;15.20;56.60;;;;;;5087455;28;20906;-46
2023/03/02 05:47:32;;;;;;;4.37;2.47;;;15.20;56.60;;;;;;5085287;28;20213;-46
2023/03/02 05:50:04;;;;;;;3.00;2.70;;;15.20;56.60;;;;;;5087220;28;20281;-46
2023/03/02 05:52:32;;;;;;;3.93;2.70;;;15.20;56.60;;;;;;5085875;28;20627;-46
2023/03/02 05:55:02;;;;;;;3.67;3.10;;;15.20;56.60;;;;;;5089419;28;20197;-46
2023/03/02 05:57:32;;;;;;;4.43;3.07;;;15.20;56.50;;;;;;5077917;28;20219;-46
2023/03/02 06:00:05;;;;;;;3.37;3.03;;;15.20;56.50;;;;;;5083719;28;20513;-46
2023/03/02 06:02:39;;;;;;;3.30;3.00;;;15.10;56.40;;;;;;5084911;28;20529;-49
2023/03/02 06:05:09;;;;;;;3.37;3.07;;;15.10;56.40;;;;;;5059683;28;20221;-46
2023/03/02 06:07:39;;;;;;;4.00;3.00;;;15.20;56.40;;;;;;5098841;28;20215;-46
2023/03/02 06:10:11;;;;;;;4.57;3.40;;;15.10;56.40;;;;;;5084484;28;20196;-46
2023/03/02 06:12:41;;;;;;;3.40;3.10;;;15.10;56.40;;;;;;5079786;28;20197;-46
2023/03/02 06:15:10;;;;;;;3.60;3.13;;;15.10;56.40;;;;;;5091311;28;20212;-46
2023/03/02 06:17:41;;;;;;;4.63;3.73;;;15.10;56.40;;;;;;5091463;28;20230;-46
2023/03/02 06:20:17;;;;;;;7.50;3.73;;;15.10;56.50;;;;;;5084643;28;20266;-46
2023/03/02 06:22:46;;;;;;;4.57;3.70;;;15.10;56.50;;;;;;5083865;28;20405;-46
2023/03/02 06:25:24;;;;;;;4.33;3.47;;;15.10;56.50;;;;;;5090443;28;20215;-46
2023/03/02 06:27:55;;;;;;;5.10;3.90;;;15.10;56.60;;;;;;5062893;28;20197;-47
2023/03/02 06:30:26;;;;;;;4.97;4.17;;;15.10;56.60;;;;;;5089886;28;20287;-46
2023/03/02 06:32:59;;;;;;;4.53;3.93;;;15.10;56.90;;;;;;5091561;28;20193;-46
2023/03/02 06:35:27;;;;;;;5.97;4.43;;;15.10;57.00;;;;;;5088119;28;20239;-46
2023/03/02 06:37:57;;;;;;;6.27;4.17;;;15.10;57.00;;;;;;5078678;28;20234;-46
2023/03/02 06:40:26;;;;;;;4.90;4.37;;;15.10;57.10;;;;;;5073615;28;20232;-47
2023/03/02 06:42:59;;;;;;;7.87;4.33;;;15.10;56.90;;;;;;5090776;28;20204;-46
2023/03/02 06:45:32;;;;;;;5.57;5.00;;;15.10;56.90;;;;;;5092061;28;20193;-46
2023/03/02 06:48:01;;;;;;;17.93;5.30;;;15.10;56.90;;;;;;5090671;28;20587;-47
2023/03/02 06:50:34;;;;;;;5.33;4.83;;;15.10;56.70;;;;;;5089550;28;20517;-46
2023/03/02 06:53:04;;;;;;;5.70;4.70;;;15.10;56.80;;;;;;5071114;28;20626;-46
2023/03/02 06:55:36;;;;;;;5.63;4.63;;;15.10;56.70;;;;;;5071976;28;20208;-46
2023/03/02 06:58:06;;;;;;;5.67;4.77;;;15.10;56.60;;;;;;5075460;28;20235;-46
2023/03/02 07:00:36;;;;;;;5.43;4.47;;;15.10;56.60;;;;;;5086021;28;20213;-46
2023/03/02 07:03:06;;;;;;;4.90;4.40;;;15.10;56.60;;;;;;5075343;28;20193;-46
2023/03/02 07:05:38;;;;;;;5.83;5.17;;;15.10;56.40;;;;;;5073613;28;20561;-46
2023/03/02 07:08:08;;;;;;;5.93;5.33;;;15.10;56.40;;;;;;5077726;28;20299;-46
2023/03/02 07:10:38;;;;;;;7.67;5.40;;;15.10;56.40;;;;;;5068979;28;20221;-46
2023/03/02 07:13:10;;;;;;;5.13;4.43;;;15.10;56.30;;;;;;5090599;28;20303;-46
2023/03/02 07:15:42;;;;;;;5.67;5.10;;;15.10;56.30;;;;;;5088588;28;20197;-46
2023/03/02 07:18:12;;;;;;;6.33;4.90;;;15.10;56.80;;;;;;5078163;28;20193;-47
2023/03/02 07:20:44;;;;;;;6.13;5.07;;;15.10;56.20;;;;;;5090560;28;20209;-46
2023/03/02 07:23:15;;;;;;;6.33;5.00;;;15.10;56.10;;;;;;5089203;28;20652;-46
2023/03/02 07:25:46;;;;;;;5.67;5.07;;;15.10;56.10;;;;;;5089571;28;20216;-46
2023/03/02 07:28:15;;;;;;;6.43;5.40;;;15.10;56.10;;;;;;5090817;28;20209;-46
2023/03/02 07:30:46;;;;;;;6.67;4.80;;;15.10;56.00;;;;;;5085910;28;20204;-46
2023/03/02 07:33:14;;;;;;;7.03;5.43;;;15.10;56.00;;;;;;5089595;28;20231;-46
2023/03/02 07:35:50;;;;;;;8.50;5.77;;;15.10;55.90;;;;;;5091684;28;20578;-47
2023/03/02 07:38:19;;;;;;;6.57;5.67;;;15.10;55.90;;;;;;5088977;28;20205;-46
2023/03/02 07:40:50;;;;;;;5.50;4.90;;;15.10;55.80;;;;;;5062603;28;20437;-47
2023/03/02 07:43:35;;;;;;;5.73;4.70;;;15.10;55.80;;;;;;5070272;28;20232;-46
2023/03/02 07:46:07;;;;;;;6.77;5.47;;;15.10;55.80;;;;;;5059900;28;20219;-47
2023/03/02 07:48:39;;;;;;;6.40;5.67;;;15.10;55.80;;;;;;5063949;28;20217;-46
2023/03/02 07:51:09;;;;;;;7.30;5.50;;;15.00;55.70;;;;;;5068037;28;20594;-46
2023/03/02 07:53:40;;;;;;;6.97;6.00;;;15.10;55.80;;;;;;5064457;28;20600;-46
2023/03/02 07:56:09;;;;;;;6.90;5.73;;;15.10;55.70;;;;;;5060272;28;20237;-46
2023/03/02 07:58:36;;;;;;;5.93;5.30;;;15.10;55.70;;;;;;5043065;28;20301;-46
2023/03/02 08:01:07;;;;;;;7.63;6.03;;;15.00;55.70;;;;;;5038394;28;20198;-47
2023/03/02 08:03:37;;;;;;;6.57;5.57;;;15.10;55.70;;;;;;5070857;28;20194;-46
2023/03/02 08:06:10;;;;;;;6.03;5.07;;;15.10;55.80;;;;;;5053362;28;20224;-46
2023/03/02 08:08:43;;;;;;;52.43;15.00;;;15.10;55.80;;;;;;5052680;28;20236;-47
2023/03/02 08:11:18;;;;;;;53.20;15.13;;;15.20;58.50;;;;;;5069686;28;20209;-47
2023/03/02 08:13:50;;;;;;;41.57;12.37;;;15.30;60.00;;;;;;5048589;28;20197;-47
2023/03/02 08:16:24;;;;;;;47.83;12.20;;;15.60;59.90;;;;;;5050094;28;20669;-47
2023/03/02 08:18:54;;;;;;;36.43;10.87;;;15.80;59.50;;;;;;5069298;28;20281;-47
2023/03/02 08:21:29;;;;;;;31.23;10.27;;;16.20;58.90;;;;;;5039351;28;20210;-47
2023/03/02 08:23:59;;;;;;;32.43;10.57;;;16.40;58.10;;;;;;5067148;28;20210;-47
2023/03/02 08:26:32;;;;;;;30.63;9.30;;;16.70;57.50;;;;;;5063195;28;20206;-46
2023/03/02 08:29:06;;;;;;;24.87;8.63;;;17.00;56.80;;;;;;5070975;28;20249;-47
2023/03/02 08:31:36;;;;;;;25.90;9.73;;;17.30;56.10;;;;;;5052651;28;20545;-47
2023/03/02 08:34:07;;;;;;;18.87;7.87;;;17.50;55.50;;;;;;5063270;28;20201;-47
2023/03/02 08:36:42;;;;;;;25.10;8.03;;;17.80;54.80;;;;;;5063914;28;20213;-47
2023/03/02 08:39:13;;;;;;;17.80;7.10;;;18.00;54.40;;;;;;5069550;28;20835;-47
2023/03/02 08:41:41;;;;;;;18.90;6.53;;;18.30;54.00;;;;;;5065175;28;20205;-46
2023/03/02 08:44:11;;;;;;;17.77;6.57;;;18.50;53.60;;;;;;5077398;28;20233;-45
2023/03/02 08:46:43;;;;;;;13.00;6.27;;;18.70;53.10;;;;;;5049614;28;20892;-46
2023/03/02 08:49:14;;;;;;;16.17;6.00;;;18.90;52.70;;;;;;5071256;28;20263;-46
2023/03/02 08:51:43;;;;;;;15.67;6.17;;;19.20;51.50;;;;;;5036520;28;20186;-47
2023/03/02 08:54:15;;;;;;;17.03;5.67;;;19.40;51.20;;;;;;5041837;28;20194;-47
2023/03/02 08:56:45;;;;;;;13.97;5.57;;;19.60;51.00;;;;;;5048704;28;20202;-46
2023/03/02 08:59:20;;;;;;;9.80;5.43;;;19.60;51.40;;;;;;5067475;28;20217;-49
2023/03/02 09:01:53;;;;;;;9.83;5.03;;;19.90;50.10;;;;;;5052004;28;20651;-47
2023/03/02 09:04:21;;;;;;;7.87;4.57;;;20.10;49.90;;;;;;5068630;28;20200;-48
2023/03/02 09:06:52;;;;;;;7.53;4.50;;;20.10;50.20;;;;;;5048727;28;20181;-47
2023/03/02 09:09:22;;;;;;;12.47;5.50;;;20.30;49.90;;;;;;5068964;28;20550;-48
2023/03/02 09:11:54;;;;;;;6.93;3.97;;;20.40;49.60;;;;;;5066536;28;20210;-47
2023/03/02 09:14:24;;;;;;;7.83;4.70;;;20.60;49.40;;;;;;5050216;28;20511;-47
2023/03/02 09:17:02;;;;;;;9.27;4.40;;;20.80;49.00;;;;;;5059461;28;20565;-46
2023/03/02 09:19:40;;;;;;;5.00;4.00;;;20.90;48.60;;;;;;5068797;28;20201;-48
2023/03/02 09:22:13;;;;;;;6.50;4.00;;;21.10;48.40;;;;;;5071471;28;20252;-47
2023/03/02 09:24:45;;;;;;;5.60;4.00;;;21.20;48.00;;;;;;5059894;28;20680;-46
2023/03/02 09:27:15;;;;;;;6.93;4.03;;;21.40;47.70;;;;;;5071562;28;20213;-46
2023/03/02 09:29:45;;;;;;;5.87;3.90;;;21.50;47.70;;;;;;5062364;28;20206;-48
2023/03/02 09:32:14;;;;;;;7.90;4.57;;;21.70;47.40;;;;;;5066581;28;20558;-48
2023/03/02 09:34:42;;;;;;;5.43;3.50;;;21.80;47.10;;;;;;5067308;28;20201;-49
2023/03/02 09:37:10;;;;;;;4.10;3.43;;;21.90;47.00;;;;;;5061977;28;20206;-47
2023/03/02 09:39:39;;;;;;;5.77;3.40;;;22.00;47.30;;;;;;5036516;28;20742;-47
2023/03/02 09:42:47;;;;;;;4.77;3.60;;;22.00;48.00;;;;;;5066097;28;20230;-47
2023/03/02 09:45:52;;;;;;;6.17;4.00;;;22.10;47.00;;;;;;5067472;28;20185;-46
2023/03/02 09:48:50;;;;;;;4.83;3.87;;;22.00;46.50;;;;;;5058280;28;20217;-48
2023/03/02 09:51:43;;;;;;;4.70;4.03;;;21.80;46.00;;;;;;5060203;28;20186;-47
2023/03/02 09:54:18;;;;;;;5.40;3.73;;;21.60;46.40;;;;;;5067412;28;20227;-46
2023/03/02 09:56:57;;;;;;;8.60;3.60;;;21.60;47.40;;;;;;5051536;28;20210;-47
2023/03/02 09:59:44;;;;;;;5.20;3.67;;;21.70;47.20;;;;;;5064032;28;20221;-47
2023/03/02 10:02:24;;;;;;;4.53;3.20;;;21.80;47.30;;;;;;5061709;28;20197;-48
2023/03/02 10:04:54;;;;;;;3.40;3.10;;;21.80;46.90;;;;;;5062243;28;20205;-47
2023/03/02 10:07:37;;;;;;;3.40;3.10;;;22.00;46.80;;;;;;5043180;28;20193;-47
2023/03/02 10:10:48;;;;;;;4.47;3.03;;;22.10;46.70;;;;;;5054829;28;20244;-47
2023/03/02 10:13:45;;;;;;;3.20;2.90;;;22.20;46.60;;;;;;5051461;28;20238;-46
2023/03/02 10:16:21;;;;;;;4.00;3.33;;;22.30;46.70;;;;;;5055549;28;20263;-48
2023/03/02 10:19:23;;;;;;;3.87;3.57;;;22.30;46.60;;;;;;5066698;28;20198;-46
2023/03/02 10:22:28;;;;;;;3.80;3.27;;;22.10;46.30;;;;;;5064405;28;20611;-47
2023/03/02 10:25:18;;;;;;;4.87;3.67;;;21.90;46.30;;;;;;5071592;28;20192;-47
2023/03/02 10:27:52;;;;;;;4.03;3.63;;;21.80;46.50;;;;;;5049521;28;20236;-46
2023/03/02 10:30:35;;;;;;;3.77;3.33;;;21.60;46.70;;;;;;5050802;28;20201;-46
2023/03/02 10:33:28;;;;;;;4.77;3.90;;;21.50;46.20;;;;;;5057390;28;20751;-47
2023/03/02 10:36:00;;;;;;;7.90;3.80;;;21.40;46.70;;;;;;5044861;28;20287;-46
2023/03/02 10:38:41;;;;;;;4.27;3.53;;;21.30;47.00;;;;;;5059627;28;20251;-47
2023/03/02 10:41:42;;;;;;;4.13;3.80;;;21.20;47.30;;;;;;5080248;28;20194;-45
2023/03/02 10:44:46;;;;;;;3.83;3.43;;;21.20;47.30;;;;;;5075835;28;20542;-46
2023/03/02 10:47:36;;;;;;;3.90;3.53;;;21.00;47.80;;;;;;4999099;28;20224;-46
2023/03/02 10:50:23;;;;;;;5.23;4.73;;;20.90;48.40;;;;;;5022330;28;20852;-47
2023/03/02 10:52:54;;;;;;;9.47;5.50;;;20.80;46.60;;;;;;5072956;28;20639;-48
2023/03/02 10:55:30;;;;;;;6.13;4.60;;;20.60;46.10;;;;;;5070059;28;20197;-47
2023/03/02 10:58:19;;;;;;;6.37;5.10;;;20.20;46.80;;;;;;5081782;28;20648;-47
2023/03/02 11:01:12;;;;;;;5.53;4.70;;;20.00;47.40;;;;;;5065288;28;20279;-46
2023/03/02 11:04:17;;;;;;;5.17;4.27;;;19.70;47.80;;;;;;5065614;28;20209;-47
2023/03/02 11:06:48;;;;;;;6.53;4.47;;;19.60;48.20;;;;;;5077447;28;20521;-47
2023/03/02 11:09:16;;;;;;;6.40;4.40;;;19.40;48.40;;;;;;5080813;28;20225;-47
2023/03/02 11:11:59;;;;;;;6.20;4.27;;;19.30;48.70;;;;;;5086129;28;20201;-46
2023/03/02 11:14:44;;;;;;;5.90;4.10;;;19.20;48.90;;;;;;5054112;28;20186;-46
2023/03/02 11:17:40;;;;;;;5.00;4.10;;;19.10;48.90;;;;;;5078034;28;20193;-46
2023/03/02 11:20:27;;;;;;;4.80;4.20;;;19.10;49.10;;;;;;5053533;28;20212;-46
2023/03/02 11:23:38;;;;;;;6.17;4.30;;;19.00;49.20;;;;;;5084943;28;20226;-46
2023/03/02 11:26:29;;;;;;;5.60;5.00;;;18.80;49.20;;;;;;5073027;28;20193;-47
2023/03/02 11:29:17;;;;;;;6.60;4.93;;;18.80;49.40;;;;;;5072486;28;20216;-46
2023/03/02 11:32:23;;;;;;;4.73;4.07;;;18.70;49.80;;;;;;5083345;28;20209;-46
2023/03/02 11:35:29;;;;;;;5.53;4.10;;;18.80;50.30;;;;;;5077376;28;20220;-46
2023/03/02 11:38:23;;;;;;;5.57;4.10;;;18.80;50.50;;;;;;5091467;28;20184;-46
2023/03/02 11:41:12;;;;;;;8.17;4.57;;;19.00;50.80;;;;;;5064711;28;20629;-47
2023/03/02 11:43:41;;;;;;;5.20;3.97;;;19.00;50.80;;;;;;5065745;28;20639;-47
2023/03/02 11:46:33;;;;;;;5.80;4.23;;;19.00;50.90;;;;;;5068967;28;20544;-46
2023/03/02 11:49:15;;;;;;;6.13;3.90;;;19.10;51.00;;;;;;5069285;28;20282;-46
2023/03/02 11:51:57;;;;;;;4.70;4.00;;;19.10;50.80;;;;;;5067519;28;20619;-47
2023/03/02 11:54:44;;;;;;;4.60;3.70;;;19.20;51.10;;;;;;5053954;28;20623;-46
2023/03/02 11:57:25;;;;;;;4.77;4.00;;;19.20;51.20;;;;;;5035826;28;20205;-46
2023/03/02 11:59:58;;;;;;;6.13;4.30;;;19.20;51.90;;;;;;5052987;28;20572;-47
2023/03/02 12:02:33;;;;;;;4.73;3.60;;;19.20;51.00;;;;;;5042419;28;20209;-47
2023/03/02 12:05:27;;;;;;;4.83;3.63;;;19.20;51.10;;;;;;5063710;28;20198;-47
2023/03/02 12:08:00;;;;;;;6.07;3.77;;;19.20;51.40;;;;;;5057610;28;20193;-46
2023/03/02 12:10:37;;;;;;;5.93;4.53;;;19.20;51.20;;;;;;5068701;28;20216;-47
2023/03/02 12:13:25;;;;;;;5.33;3.83;;;19.30;51.00;;;;;;5068341;28;20190;-47
2023/03/02 12:15:55;;;;;;;4.57;3.90;;;19.30;51.30;;;;;;5064547;28;20272;-47
2023/03/02 12:18:51;;;;;;;6.47;4.30;;;19.30;51.30;;;;;;5045486;28;20267;-46
2023/03/02 12:21:26;;;;;;;9.93;4.33;;;19.20;51.50;;;;;;5076255;28;20519;-46
2023/03/02 12:23:59;;;;;;;9.27;3.40;;;19.20;51.30;;;;;;5048643;28;20190;-46
2023/03/02 12:26:33;;;;;;;5.07;3.80;;;19.30;51.60;;;;;;5038847;28;20255;-46
2023/03/02 12:29:08;;;;;;;4.47;3.63;;;19.40;51.60;;;;;;5038872;28;20214;-47
2023/03/02 12:31:49;;;;;;;4.57;4.03;;;19.30;51.40;;;;;;5060431;28;20198;-46
2023/03/02 12:34:24;;;;;;;5.13;3.83;;;19.40;51.50;;;;;;5045601;28;20201;-46
2023/03/02 12:36:57;;;;;;;4.33;3.77;;;19.40;51.60;;;;;;5055460;28;20195;-47
2023/03/02 12:40:13;;;;;;;5.23;3.90;;;19.40;51.70;;;;;;5066723;28;20286;-46
2023/03/02 12:43:06;;;;;;;5.10;3.90;;;19.40;52.00;;;;;;5014887;28;20836;-48
2023/03/02 12:46:08;;;;;;;4.63;3.90;;;19.50;52.20;;;;;;5031025;28;20199;-46
2023/03/02 12:48:51;;;;;;;4.93;3.93;;;19.50;51.70;;;;;;5059786;28;20206;-48
2023/03/02 12:51:25;;;;;;;5.77;3.77;;;19.50;51.30;;;;;;5066204;28;20194;-47
2023/03/02 12:54:23;;;;;;;4.37;3.50;;;19.50;51.00;;;;;;5045513;28;20619;-47
2023/03/02 12:57:16;;;;;;;4.10;3.50;;;19.40;50.70;;;;;;5063657;28;20190;-47
2023/03/02 12:59:59;;;;;;;3.97;3.30;;;19.40;50.90;;;;;;5065781;28;20642;-46
2023/03/02 13:02:30;;;;;;;4.40;4.00;;;19.30;50.90;;;;;;5049123;28;20205;-46
2023/03/02 13:05:08;;;;;;;5.40;3.43;;;19.30;50.70;;;;;;5050098;28;20214;-46
2023/03/02 13:07:43;;;;;;;4.30;3.70;;;19.30;50.70;;;;;;5064032;28;20208;-46
2023/03/02 13:10:31;;;;;;;4.47;3.67;;;19.30;50.80;;;;;;5056800;28;20568;-47
2023/03/02 13:13:01;;;;;;;3.73;3.37;;;19.30;50.80;;;;;;5068667;28;20193;-47
2023/03/02 13:15:34;;;;;;;4.27;3.43;;;19.30;50.80;;;;;;5067569;28;20205;-48
2023/03/02 13:18:04;;;;;;;3.87;3.47;;;19.20;50.80;;;;;;5070238;28;20193;-47
2023/03/02 13:20:34;;;;;;;3.70;3.40;;;19.20;51.00;;;;;;5048291;28;20200;-47
2023/03/02 13:23:02;;;;;;;3.80;3.40;;;19.20;51.30;;;;;;5056114;28;20221;-47
2023/03/02 13:25:33;;;;;;;3.37;3.07;;;19.20;51.60;;;;;;5051036;28;20549;-46
2023/03/02 13:28:08;;;;;;;4.23;2.90;;;19.20;51.70;;;;;;5061516;28;20197;-46
2023/03/02 13:31:18;;;;;;;4.20;3.40;;;19.20;51.70;;;;;;5072182;28;20213;-47
2023/03/02 13:33:49;;;;;;;4.27;3.47;;;19.30;51.70;;;;;;5055981;28;20211;-47